sensor_id;sensor_type;location;lat;lon;timestamp;pressure;altitude;pressure_sealevel;temperature;humidity
57442;BME280;43284;47.042;15.498;2022-09-27T00:01:10;95906.41;;;11.28;100.00
57442;BME280;43284;47.042;15.498;2022-09-27T00:03:38;95905.50;;;11.29;100.00
57442;BME280;43284;47.042;15.498;2022-09-27T00:08:38;95891.44;;;11.30;100.00
57442;BME280;43284;47.042;15.498;2022-09-27T00:11:16;95888.84;;;11.30;100.00
57442;BME280;43284;47.042;15.498;2022-09-27T00:13:47;95889.91;;;11.27;100.00
57442;BME280;43284;47.042;15.498;2022-09-27T00:16:15;95896.69;;;11.30;100.00
57442;BME280;43284;47.042;15.498;2022-09-27T00:18:43;95895.03;;;11.29;100.00
57442;BME280;43284;47.042;15.498;2022-09-27T00:21:12;95888.00;;;11.29;100.00
57442;BME280;43284;47.042;15.498;2022-09-27T00:23:40;95885.16;;;11.32;100.00
57442;BME280;43284;47.042;15.498;2022-09-27T00:26:11;95875.56;;;11.33;100.00
57442;BME280;43284;47.042;15.498;2022-09-27T00:28:39;95868.44;;;11.35;100.00
57442;BME280;43284;47.042;15.498;2022-09-27T00:31:24;95865.69;;;11.37;100.00
57442;BME280;43284;47.042;15.498;2022-09-27T00:33:56;95863.06;;;11.37;100.00
57442;BME280;43284;47.042;15.498;2022-09-27T00:36:25;95853.56;;;11.36;100.00
57442;BME280;43284;47.042;15.498;2022-09-27T00:38:52;95858.78;;;11.36;100.00
57442;BME280;43284;47.042;15.498;2022-09-27T00:41:32;95847.25;;;11.38;100.00
57442;BME280;43284;47.042;15.498;2022-09-27T00:44:46;95841.09;;;11.39;100.00
57442;BME280;43284;47.042;15.498;2022-09-27T00:47:46;95837.41;;;11.42;100.00
57442;BME280;43284;47.042;15.498;2022-09-27T00:49:56;95836.34;;;11.44;100.00
57442;BME280;43284;47.042;15.498;2022-09-27T00:52:39;95836.13;;;11.47;100.00
57442;BME280;43284;47.042;15.498;2022-09-27T00:55:14;95837.81;;;11.48;100.00
57442;BME280;43284;47.042;15.498;2022-09-27T00:57:44;95838.63;;;11.49;100.00
57442;BME280;43284;47.042;15.498;2022-09-27T01:00:13;95842.06;;;11.49;100.00
57442;BME280;43284;47.042;15.498;2022-09-27T01:02:48;95839.34;;;11.51;100.00
57442;BME280;43284;47.042;15.498;2022-09-27T01:05:18;95841.88;;;11.52;100.00
57442;BME280;43284;47.042;15.498;2022-09-27T01:07:47;95839.13;;;11.54;100.00
57442;BME280;43284;47.042;15.498;2022-09-27T01:10:15;95834.59;;;11.56;100.00
57442;BME280;43284;47.042;15.498;2022-09-27T01:18:12;95820.44;;;11.59;100.00
57442;BME280;43284;47.042;15.498;2022-09-27T01:21:09;95812.59;;;11.59;100.00
57442;BME280;43284;47.042;15.498;2022-09-27T01:26:51;95799.31;;;11.62;100.00
57442;BME280;43284;47.042;15.498;2022-09-27T01:29:52;95794.91;;;11.62;100.00
57442;BME280;43284;47.042;15.498;2022-09-27T01:37:53;95779.19;;;11.62;100.00
57442;BME280;43284;47.042;15.498;2022-09-27T01:40:48;95769.78;;;11.60;100.00
57442;BME280;43284;47.042;15.498;2022-09-27T01:43:17;95767.28;;;11.58;100.00
57442;BME280;43284;47.042;15.498;2022-09-27T01:48:24;95754.53;;;11.53;100.00
57442;BME280;43284;47.042;15.498;2022-09-27T01:51:03;95752.88;;;11.52;100.00
57442;BME280;43284;47.042;15.498;2022-09-27T01:53:50;95752.03;;;11.52;100.00
57442;BME280;43284;47.042;15.498;2022-09-27T01:56:26;95751.31;;;11.50;100.00
57442;BME280;43284;47.042;15.498;2022-09-27T01:59:10;95742.53;;;11.51;100.00
57442;BME280;43284;47.042;15.498;2022-09-27T02:01:42;95747.88;;;11.49;100.00
57442;BME280;43284;47.042;15.498;2022-09-27T02:04:16;95741.81;;;11.49;100.00
57442;BME280;43284;47.042;15.498;2022-09-27T02:06:52;95737.53;;;11.48;100.00
57442;BME280;43284;47.042;15.498;2022-09-27T02:09:44;95740.25;;;11.46;100.00
57442;BME280;43284;47.042;15.498;2022-09-27T02:12:18;95744.53;;;11.47;100.00
57442;BME280;43284;47.042;15.498;2022-09-27T02:15:12;95747.16;;;11.47;100.00
57442;BME280;43284;47.042;15.498;2022-09-27T02:18:00;95748.09;;;11.46;100.00
57442;BME280;43284;47.042;15.498;2022-09-27T02:20:40;95742.88;;;11.46;100.00
57442;BME280;43284;47.042;15.498;2022-09-27T02:23:26;95748.94;;;11.47;100.00
57442;BME280;43284;47.042;15.498;2022-09-27T02:26:08;95744.66;;;11.46;100.00
57442;BME280;43284;47.042;15.498;2022-09-27T02:31:16;95739.19;;;11.49;100.00
57442;BME280;43284;47.042;15.498;2022-09-27T02:33:57;95750.47;;;11.49;100.00
57442;BME280;43284;47.042;15.498;2022-09-27T02:36:27;95746.06;;;11.50;100.00
57442;BME280;43284;47.042;15.498;2022-09-27T02:38:55;95740.84;;;11.50;100.00
57442;BME280;43284;47.042;15.498;2022-09-27T02:41:24;95741.56;;;11.52;100.00
57442;BME280;43284;47.042;15.498;2022-09-27T02:43:57;95740.53;;;11.54;100.00
57442;BME280;43284;47.042;15.498;2022-09-27T02:52:28;95747.16;;;11.59;100.00
57442;BME280;43284;47.042;15.498;2022-09-27T02:55:18;95732.19;;;11.61;100.00
57442;BME280;43284;47.042;15.498;2022-09-27T03:00:50;95726.00;;;11.62;100.00
57442;BME280;43284;47.042;15.498;2022-09-27T03:03:56;95720.69;;;11.63;100.00
57442;BME280;43284;47.042;15.498;2022-09-27T03:06:26;95719.00;;;11.62;100.00
57442;BME280;43284;47.042;15.498;2022-09-27T03:08:55;95715.66;;;11.60;100.00
57442;BME280;43284;47.042;15.498;2022-09-27T03:11:22;95711.25;;;11.61;100.00
57442;BME280;43284;47.042;15.498;2022-09-27T03:13:50;95710.31;;;11.62;100.00
57442;BME280;43284;47.042;15.498;2022-09-27T03:16:17;95703.41;;;11.61;100.00
57442;BME280;43284;47.042;15.498;2022-09-27T03:18:45;95694.59;;;11.62;100.00
57442;BME280;43284;47.042;15.498;2022-09-27T03:21:13;95695.44;;;11.62;100.00
57442;BME280;43284;47.042;15.498;2022-09-27T03:23:40;95692.09;;;11.60;100.00
57442;BME280;43284;47.042;15.498;2022-09-27T03:26:08;95686.75;;;11.62;100.00
57442;BME280;43284;47.042;15.498;2022-09-27T03:28:35;95683.06;;;11.64;100.00
57442;BME280;43284;47.042;15.498;2022-09-27T03:31:03;95669.97;;;11.64;100.00
57442;BME280;43284;47.042;15.498;2022-09-27T03:33:30;95671.78;;;11.64;100.00
57442;BME280;43284;47.042;15.498;2022-09-27T03:35:59;95654.28;;;11.64;100.00
57442;BME280;43284;47.042;15.498;2022-09-27T03:38:26;95643.81;;;11.64;100.00
57442;BME280;43284;47.042;15.498;2022-09-27T03:40:54;95636.19;;;11.61;100.00
57442;BME280;43284;47.042;15.498;2022-09-27T03:43:21;95636.41;;;11.58;100.00
57442;BME280;43284;47.042;15.498;2022-09-27T03:45:49;95635.72;;;11.56;100.00
57442;BME280;43284;47.042;15.498;2022-09-27T03:48:17;95634.88;;;11.55;100.00
57442;BME280;43284;47.042;15.498;2022-09-27T03:50:45;95632.25;;;11.55;100.00
57442;BME280;43284;47.042;15.498;2022-09-27T03:53:12;95626.19;;;11.55;100.00
57442;BME280;43284;47.042;15.498;2022-09-27T03:55:39;95632.38;;;11.54;100.00
57442;BME280;43284;47.042;15.498;2022-09-27T03:58:07;95635.00;;;11.54;100.00
57442;BME280;43284;47.042;15.498;2022-09-27T04:00:34;95627.13;;;11.54;100.00
57442;BME280;43284;47.042;15.498;2022-09-27T04:03:03;95635.84;;;11.54;100.00
57442;BME280;43284;47.042;15.498;2022-09-27T04:05:31;95634.88;;;11.55;100.00
57442;BME280;43284;47.042;15.498;2022-09-27T04:07:59;95631.28;;;11.57;100.00
57442;BME280;43284;47.042;15.498;2022-09-27T04:10:28;95625.25;;;11.56;100.00
57442;BME280;43284;47.042;15.498;2022-09-27T04:12:56;95616.44;;;11.57;100.00
57442;BME280;43284;47.042;15.498;2022-09-27T04:15:23;95621.69;;;11.57;100.00
57442;BME280;43284;47.042;15.498;2022-09-27T04:17:51;95618.94;;;11.59;100.00
57442;BME280;43284;47.042;15.498;2022-09-27T04:20:18;95617.16;;;11.59;100.00
57442;BME280;43284;47.042;15.498;2022-09-27T04:22:45;95617.03;;;11.61;100.00
57442;BME280;43284;47.042;15.498;2022-09-27T04:25:13;95607.53;;;11.60;100.00
57442;BME280;43284;47.042;15.498;2022-09-27T04:27:45;95606.91;;;11.56;100.00
57442;BME280;43284;47.042;15.498;2022-09-27T04:30:13;95603.59;;;11.54;100.00
57442;BME280;43284;47.042;15.498;2022-09-27T04:32:42;95599.69;;;11.48;100.00
57442;BME280;43284;47.042;15.498;2022-09-27T04:35:11;95599.78;;;11.47;100.00
57442;BME280;43284;47.042;15.498;2022-09-27T04:37:57;95590.03;;;11.49;100.00
57442;BME280;43284;47.042;15.498;2022-09-27T04:40:26;95587.53;;;11.47;100.00
57442;BME280;43284;47.042;15.498;2022-09-27T04:42:53;95584.09;;;11.47;100.00
57442;BME280;43284;47.042;15.498;2022-09-27T04:45:21;95572.78;;;11.46;100.00
57442;BME280;43284;47.042;15.498;2022-09-27T04:47:49;95568.38;;;11.47;100.00
57442;BME280;43284;47.042;15.498;2022-09-27T04:50:17;95562.22;;;11.48;100.00
57442;BME280;43284;47.042;15.498;2022-09-27T04:52:54;95558.63;;;11.49;100.00
57442;BME280;43284;47.042;15.498;2022-09-27T04:55:21;95557.00;;;11.48;100.00
57442;BME280;43284;47.042;15.498;2022-09-27T04:57:49;95555.31;;;11.47;100.00
57442;BME280;43284;47.042;15.498;2022-09-27T05:00:17;95561.50;;;11.46;100.00
57442;BME280;43284;47.042;15.498;2022-09-27T05:02:45;95553.50;;;11.47;100.00
57442;BME280;43284;47.042;15.498;2022-09-27T05:05:16;95554.38;;;11.48;100.00
57442;BME280;43284;47.042;15.498;2022-09-27T05:07:44;95549.13;;;11.48;100.00
57442;BME280;43284;47.042;15.498;2022-09-27T05:10:11;95553.50;;;11.47;100.00
57442;BME280;43284;47.042;15.498;2022-09-27T05:12:40;95545.81;;;11.46;100.00
57442;BME280;43284;47.042;15.498;2022-09-27T05:15:08;95548.66;;;11.43;100.00
57442;BME280;43284;47.042;15.498;2022-09-27T05:17:35;95548.75;;;11.41;100.00
57442;BME280;43284;47.042;15.498;2022-09-27T05:20:03;95553.97;;;11.41;100.00
57442;BME280;43284;47.042;15.498;2022-09-27T05:22:30;95556.50;;;11.43;100.00
57442;BME280;43284;47.042;15.498;2022-09-27T05:24:57;95553.88;;;11.43;100.00
57442;BME280;43284;47.042;15.498;2022-09-27T05:27:25;95550.78;;;11.38;100.00
57442;BME280;43284;47.042;15.498;2022-09-27T05:29:52;95554.84;;;11.42;100.00
57442;BME280;43284;47.042;15.498;2022-09-27T05:32:19;95553.97;;;11.41;100.00
57442;BME280;43284;47.042;15.498;2022-09-27T05:34:46;95549.72;;;11.40;100.00
57442;BME280;43284;47.042;15.498;2022-09-27T05:37:14;95549.72;;;11.40;100.00
57442;BME280;43284;47.042;15.498;2022-09-27T05:39:42;95548.75;;;11.41;100.00
57442;BME280;43284;47.042;15.498;2022-09-27T05:42:09;95552.22;;;11.42;100.00
57442;BME280;43284;47.042;15.498;2022-09-27T05:44:37;95547.81;;;11.42;100.00
57442;BME280;43284;47.042;15.498;2022-09-27T05:47:05;95551.25;;;11.43;100.00
57442;BME280;43284;47.042;15.498;2022-09-27T05:49:32;95545.31;;;11.41;100.00
57442;BME280;43284;47.042;15.498;2022-09-27T05:52:00;95545.09;;;11.44;100.00
57442;BME280;43284;47.042;15.498;2022-09-27T05:54:27;95547.72;;;11.44;100.00
57442;BME280;43284;47.042;15.498;2022-09-27T05:56:56;95545.66;;;11.36;100.00
57442;BME280;43284;47.042;15.498;2022-09-27T05:59:26;95555.31;;;11.36;100.00
57442;BME280;43284;47.042;15.498;2022-09-27T06:01:54;95544.84;;;11.36;100.00
57442;BME280;43284;47.042;15.498;2022-09-27T06:04:21;95543.16;;;11.34;100.00
57442;BME280;43284;47.042;15.498;2022-09-27T06:06:48;95546.63;;;11.35;100.00
57442;BME280;43284;47.042;15.498;2022-09-27T06:09:16;95544.75;;;11.37;100.00
57442;BME280;43284;47.042;15.498;2022-09-27T06:11:44;95536.75;;;11.39;100.00
57442;BME280;43284;47.042;15.498;2022-09-27T06:14:15;95540.22;;;11.39;100.00
57442;BME280;43284;47.042;15.498;2022-09-27T06:16:42;95543.41;;;11.43;100.00
57442;BME280;43284;47.042;15.498;2022-09-27T06:19:11;95539.97;;;11.42;100.00
57442;BME280;43284;47.042;15.498;2022-09-27T06:21:38;95530.69;;;11.38;100.00
57442;BME280;43284;47.042;15.498;2022-09-27T06:24:06;95537.59;;;11.39;100.00
57442;BME280;43284;47.042;15.498;2022-09-27T06:26:33;95528.91;;;11.39;100.00
57442;BME280;43284;47.042;15.498;2022-09-27T06:29:00;95518.31;;;11.40;100.00
57442;BME280;43284;47.042;15.498;2022-09-27T06:31:28;95522.38;;;11.44;100.00
57442;BME280;43284;47.042;15.498;2022-09-27T06:33:56;95524.72;;;11.47;100.00
57442;BME280;43284;47.042;15.498;2022-09-27T06:36:24;95529.03;;;11.48;100.00
57442;BME280;43284;47.042;15.498;2022-09-27T06:38:52;95537.22;;;11.55;100.00
57442;BME280;43284;47.042;15.498;2022-09-27T06:41:19;95536.03;;;11.59;100.00
57442;BME280;43284;47.042;15.498;2022-09-27T06:43:47;95537.47;;;11.63;100.00
57442;BME280;43284;47.042;15.498;2022-09-27T06:46:15;95537.09;;;11.68;100.00
57442;BME280;43284;47.042;15.498;2022-09-27T06:48:42;95527.34;;;11.70;100.00
57442;BME280;43284;47.042;15.498;2022-09-27T06:51:09;95535.75;;;11.73;100.00
57442;BME280;43284;47.042;15.498;2022-09-27T06:53:36;95525.06;;;11.77;100.00
57442;BME280;43284;47.042;15.498;2022-09-27T06:56:04;95530.88;;;11.80;100.00
57442;BME280;43284;47.042;15.498;2022-09-27T06:58:31;95526.34;;;11.82;100.00
57442;BME280;43284;47.042;15.498;2022-09-27T07:01:16;95525.25;;;11.85;100.00
57442;BME280;43284;47.042;15.498;2022-09-27T07:03:49;95523.34;;;11.87;100.00
57442;BME280;43284;47.042;15.498;2022-09-27T07:06:21;95527.69;;;11.88;100.00
57442;BME280;43284;47.042;15.498;2022-09-27T07:08:50;95529.22;;;11.90;100.00
57442;BME280;43284;47.042;15.498;2022-09-27T07:11:19;95538.72;;;11.91;100.00
57442;BME280;43284;47.042;15.498;2022-09-27T07:13:47;95535.06;;;11.94;100.00
57442;BME280;43284;47.042;15.498;2022-09-27T07:16:15;95538.25;;;11.98;100.00
57442;BME280;43284;47.042;15.498;2022-09-27T07:18:42;95527.38;;;12.02;100.00
57442;BME280;43284;47.042;15.498;2022-09-27T07:21:10;95534.31;;;12.03;100.00
57442;BME280;43284;47.042;15.498;2022-09-27T07:23:38;95532.25;;;12.07;100.00
57442;BME280;43284;47.042;15.498;2022-09-27T07:26:05;95539.06;;;12.09;100.00
57442;BME280;43284;47.042;15.498;2022-09-27T07:28:34;95541.53;;;12.11;100.00
57442;BME280;43284;47.042;15.498;2022-09-27T07:31:02;95541.31;;;12.14;100.00
57442;BME280;43284;47.042;15.498;2022-09-27T07:33:31;95551.53;;;12.17;100.00
57442;BME280;43284;47.042;15.498;2022-09-27T07:35:58;95551.78;;;12.14;100.00
57442;BME280;43284;47.042;15.498;2022-09-27T07:38:26;95560.56;;;12.13;100.00
57442;BME280;43284;47.042;15.498;2022-09-27T07:40:53;95565.44;;;12.18;100.00
57442;BME280;43284;47.042;15.498;2022-09-27T07:43:21;95575.91;;;12.18;100.00
57442;BME280;43284;47.042;15.498;2022-09-27T07:45:47;95575.69;;;12.21;100.00
57442;BME280;43284;47.042;15.498;2022-09-27T07:48:15;95577.34;;;12.22;100.00
57442;BME280;43284;47.042;15.498;2022-09-27T07:50:43;95579.84;;;12.23;100.00
57442;BME280;43284;47.042;15.498;2022-09-27T07:53:10;95570.91;;;12.26;100.00
57442;BME280;43284;47.042;15.498;2022-09-27T07:55:40;95570.06;;;12.25;100.00
57442;BME280;43284;47.042;15.498;2022-09-27T07:58:10;95574.50;;;12.25;100.00
57442;BME280;43284;47.042;15.498;2022-09-27T08:00:39;95571.00;;;12.24;100.00
57442;BME280;43284;47.042;15.498;2022-09-27T08:03:12;95576.50;;;12.21;100.00
57442;BME280;43284;47.042;15.498;2022-09-27T08:05:44;95570.06;;;12.25;100.00
57442;BME280;43284;47.042;15.498;2022-09-27T08:08:14;95579.47;;;12.28;100.00
57442;BME280;43284;47.042;15.498;2022-09-27T08:10:42;95584.34;;;12.32;100.00
57442;BME280;43284;47.042;15.498;2022-09-27T08:13:11;95582.31;;;12.36;100.00
57442;BME280;43284;47.042;15.498;2022-09-27T08:15:39;95578.50;;;12.40;100.00
57442;BME280;43284;47.042;15.498;2022-09-27T08:18:07;95586.47;;;12.39;100.00
57442;BME280;43284;47.042;15.498;2022-09-27T08:20:38;95581.84;;;12.31;100.00
57442;BME280;43284;47.042;15.498;2022-09-27T08:23:06;95592.91;;;12.34;100.00
57442;BME280;43284;47.042;15.498;2022-09-27T08:25:33;95587.06;;;12.31;100.00
57442;BME280;43284;47.042;15.498;2022-09-27T08:28:01;95583.25;;;12.35;100.00
57442;BME280;43284;47.042;15.498;2022-09-27T08:30:30;95587.44;;;12.38;100.00
57442;BME280;43284;47.042;15.498;2022-09-27T08:32:59;95586.19;;;12.42;100.00
57442;BME280;43284;47.042;15.498;2022-09-27T08:35:28;95591.22;;;12.45;100.00
57442;BME280;43284;47.042;15.498;2022-09-27T08:37:59;95592.63;;;12.49;99.83
57442;BME280;43284;47.042;15.498;2022-09-27T08:49:01;95592.31;;;12.63;99.89
57442;BME280;43284;47.042;15.498;2022-09-27T08:51:33;95582.44;;;12.67;99.97
57442;BME280;43284;47.042;15.498;2022-09-27T08:54:07;95583.34;;;12.77;100.00
57442;BME280;43284;47.042;15.498;2022-09-27T08:56:38;95587.59;;;12.78;98.97
57442;BME280;43284;47.042;15.498;2022-09-27T08:59:24;95589.34;;;12.89;100.00
57442;BME280;43284;47.042;15.498;2022-09-27T09:01:54;95590.63;;;12.94;99.96
57442;BME280;43284;47.042;15.498;2022-09-27T09:04:36;95592.88;;;12.99;99.88
57442;BME280;43284;47.042;15.498;2022-09-27T09:07:36;95577.13;;;12.99;98.52
57442;BME280;43284;47.042;15.498;2022-09-27T09:16:07;95586.91;;;12.97;94.95
57442;BME280;43284;47.042;15.498;2022-09-27T09:21:56;95580.63;;;13.09;96.51
57442;BME280;43284;47.042;15.498;2022-09-27T09:24:35;95581.72;;;13.07;96.13
57442;BME280;43284;47.042;15.498;2022-09-27T09:27:17;95591.38;;;13.06;96.11
57442;BME280;43284;47.042;15.498;2022-09-27T09:30:00;95587.78;;;13.07;96.75
57442;BME280;43284;47.042;15.498;2022-09-27T09:33:20;95586.97;;;13.07;96.65
57442;BME280;43284;47.042;15.498;2022-09-27T09:35:43;95589.88;;;13.04;95.74
57442;BME280;43284;47.042;15.498;2022-09-27T09:38:22;95591.50;;;13.05;96.12
57442;BME280;43284;47.042;15.498;2022-09-27T09:41:17;95584.63;;;13.04;95.54
57442;BME280;43284;47.042;15.498;2022-09-27T09:43:55;95581.16;;;13.03;95.94
57442;BME280;43284;47.042;15.498;2022-09-27T09:46:35;95586.53;;;13.02;95.50
57442;BME280;43284;47.042;15.498;2022-09-27T09:49:49;95587.25;;;13.04;95.80
57442;BME280;43284;47.042;15.498;2022-09-27T09:52:17;95594.13;;;13.05;96.50
57442;BME280;43284;47.042;15.498;2022-09-27T09:54:57;95586.97;;;13.07;97.47
57442;BME280;43284;47.042;15.498;2022-09-27T09:57:43;95595.44;;;13.10;98.23
57442;BME280;43284;47.042;15.498;2022-09-27T10:00:17;95589.88;;;13.04;96.24
57442;BME280;43284;47.042;15.498;2022-09-27T10:02:46;95600.09;;;13.07;96.21
57442;BME280;43284;47.042;15.498;2022-09-27T10:05:17;95596.84;;;13.14;97.04
57442;BME280;43284;47.042;15.498;2022-09-27T10:07:46;95601.81;;;13.17;97.54
57442;BME280;43284;47.042;15.498;2022-09-27T10:10:17;95607.72;;;13.10;96.04
57442;BME280;43284;47.042;15.498;2022-09-27T10:12:46;95611.16;;;13.10;97.14
57442;BME280;43284;47.042;15.498;2022-09-27T10:15:18;95609.38;;;13.11;97.02
57442;BME280;43284;47.042;15.498;2022-09-27T10:17:49;95618.44;;;13.07;97.12
57442;BME280;43284;47.042;15.498;2022-09-27T10:20:29;95627.41;;;13.04;95.90
57442;BME280;43284;47.042;15.498;2022-09-27T10:23:12;95618.84;;;13.02;97.81
57442;BME280;43284;47.042;15.498;2022-09-27T10:28:36;95634.53;;;12.81;97.16
57442;BME280;43284;47.042;15.498;2022-09-27T10:31:10;95626.56;;;12.83;99.05
57442;BME280;43284;47.042;15.498;2022-09-27T10:36:34;95610.88;;;12.71;98.01
57442;BME280;43284;47.042;15.498;2022-09-27T10:39:04;95619.13;;;12.67;95.65
57442;BME280;43284;47.042;15.498;2022-09-27T10:41:34;95623.53;;;12.66;97.06
57442;BME280;43284;47.042;15.498;2022-09-27T10:44:19;95627.94;;;12.66;96.85
57442;BME280;43284;47.042;15.498;2022-09-27T10:46:49;95613.06;;;12.66;97.11
57442;BME280;43284;47.042;15.498;2022-09-27T10:49:40;95614.72;;;12.67;97.55
57442;BME280;43284;47.042;15.498;2022-09-27T10:52:23;95613.06;;;12.66;97.24
57442;BME280;43284;47.042;15.498;2022-09-27T10:54:57;95618.16;;;12.68;97.94
57442;BME280;43284;47.042;15.498;2022-09-27T10:57:30;95638.19;;;12.69;97.59
57442;BME280;43284;47.042;15.498;2022-09-27T11:00:05;95638.91;;;12.71;96.32
57442;BME280;43284;47.042;15.498;2022-09-27T11:02:35;95636.19;;;12.61;97.14
57442;BME280;43284;47.042;15.498;2022-09-27T11:05:10;95645.25;;;12.57;97.74
57442;BME280;43284;47.042;15.498;2022-09-27T11:07:49;95640.75;;;12.48;97.85
57442;BME280;43284;47.042;15.498;2022-09-27T11:10:33;95634.41;;;12.50;97.29
57442;BME280;43284;47.042;15.498;2022-09-27T11:13:19;95626.94;;;12.46;96.53
57442;BME280;43284;47.042;15.498;2022-09-27T11:18:56;95616.34;;;12.47;96.01
57442;BME280;43284;47.042;15.498;2022-09-27T11:21:56;95621.31;;;12.62;95.59
57442;BME280;43284;47.042;15.498;2022-09-27T11:32:59;95607.50;;;12.48;97.29
57442;BME280;43284;47.042;15.498;2022-09-27T11:35:51;95605.59;;;12.50;97.95
57442;BME280;43284;47.042;15.498;2022-09-27T11:38:38;95601.06;;;12.52;97.50
57442;BME280;43284;47.042;15.498;2022-09-27T11:46:42;95589.03;;;12.50;95.73
57442;BME280;43284;47.042;15.498;2022-09-27T11:49:40;95590.84;;;12.49;96.31
57442;BME280;43284;47.042;15.498;2022-09-27T11:52:35;95593.13;;;12.43;94.59
57442;BME280;43284;47.042;15.498;2022-09-27T11:58:45;95584.84;;;12.58;96.90
57442;BME280;43284;47.042;15.498;2022-09-27T12:01:29;95584.72;;;12.60;96.49
57442;BME280;43284;47.042;15.498;2022-09-27T12:09:24;95592.25;;;12.74;98.27
57442;BME280;43284;47.042;15.498;2022-09-27T12:12:21;95590.34;;;12.76;98.07
57442;BME280;43284;47.042;15.498;2022-09-27T12:14:55;95590.63;;;12.73;97.84
57442;BME280;43284;47.042;15.498;2022-09-27T12:17:32;95593.94;;;12.75;98.49
57442;BME280;43284;47.042;15.498;2022-09-27T12:20:33;95595.03;;;12.73;98.22
57442;BME280;43284;47.042;15.498;2022-09-27T12:23:16;95599.41;;;12.72;98.44
57442;BME280;43284;47.042;15.498;2022-09-27T12:25:49;95607.16;;;12.74;98.63
57442;BME280;43284;47.042;15.498;2022-09-27T12:30:58;95612.53;;;12.72;99.07
57442;BME280;43284;47.042;15.498;2022-09-27T12:33:41;95619.13;;;12.67;98.31
57442;BME280;43284;47.042;15.498;2022-09-27T12:36:17;95622.69;;;12.66;98.15
57442;BME280;43284;47.042;15.498;2022-09-27T12:39:01;95627.22;;;12.64;97.99
57442;BME280;43284;47.042;15.498;2022-09-27T12:41:40;95630.09;;;12.61;97.33
57442;BME280;43284;47.042;15.498;2022-09-27T12:44:11;95628.47;;;12.60;97.00
57442;BME280;43284;47.042;15.498;2022-09-27T12:49:52;95631.06;;;12.60;95.33
57442;BME280;43284;47.042;15.498;2022-09-27T12:52:30;95636.78;;;12.65;96.76
57442;BME280;43284;47.042;15.498;2022-09-27T13:00:45;95630.09;;;12.61;96.51
57442;BME280;43284;47.042;15.498;2022-09-27T13:03:42;95625.47;;;12.64;96.73
57442;BME280;43284;47.042;15.498;2022-09-27T13:12:28;95632.31;;;12.76;97.37
57442;BME280;43284;47.042;15.498;2022-09-27T13:20:32;95634.44;;;12.83;96.92
57442;BME280;43284;47.042;15.498;2022-09-27T13:25:56;95626.88;;;12.89;97.30
57442;BME280;43284;47.042;15.498;2022-09-27T13:31:06;95621.75;;;12.88;95.00
57442;BME280;43284;47.042;15.498;2022-09-27T13:36:26;95617.09;;;12.91;95.42
57442;BME280;43284;47.042;15.498;2022-09-27T13:46:55;95618.94;;;13.01;95.38
57442;BME280;43284;47.042;15.498;2022-09-27T13:49:38;95620.63;;;13.02;93.57
57442;BME280;43284;47.042;15.498;2022-09-27T13:52:28;95622.28;;;13.03;93.35
57442;BME280;43284;47.042;15.498;2022-09-27T13:55:49;95625.81;;;13.13;94.79
57442;BME280;43284;47.042;15.498;2022-09-27T13:58:04;95630.63;;;13.08;93.51
57442;BME280;43284;47.042;15.498;2022-09-27T14:00:43;95633.09;;;13.09;92.86
57442;BME280;43284;47.042;15.498;2022-09-27T14:06:02;95638.34;;;13.09;93.90
57442;BME280;43284;47.042;15.498;2022-09-27T14:11:11;95636.75;;;13.18;94.33
57442;BME280;43284;47.042;15.498;2022-09-27T14:13:40;95640.06;;;13.20;94.29
57442;BME280;43284;47.042;15.498;2022-09-27T14:16:15;95646.84;;;13.23;94.12
57442;BME280;43284;47.042;15.498;2022-09-27T14:18:49;95642.31;;;13.25;94.44
57442;BME280;43284;47.042;15.498;2022-09-27T14:21:21;95639.69;;;13.25;93.86
57442;BME280;43284;47.042;15.498;2022-09-27T14:23:52;95639.56;;;13.26;93.95
57442;BME280;43284;47.042;15.498;2022-09-27T14:26:26;95646.63;;;13.26;93.71
57442;BME280;43284;47.042;15.498;2022-09-27T14:28:53;95660.75;;;13.13;90.64
57442;BME280;43284;47.042;15.498;2022-09-27T14:31:23;95666.97;;;13.12;90.98
57442;BME280;43284;47.042;15.498;2022-09-27T14:34:05;95672.97;;;13.03;89.74
57442;BME280;43284;47.042;15.498;2022-09-27T14:36:35;95679.06;;;13.04;90.70
57442;BME280;43284;47.042;15.498;2022-09-27T14:39:28;95679.66;;;12.96;88.78
57442;BME280;43284;47.042;15.498;2022-09-27T14:42:15;95683.38;;;12.93;88.77
57442;BME280;43284;47.042;15.498;2022-09-27T14:44:44;95695.44;;;12.85;86.64
57442;BME280;43284;47.042;15.498;2022-09-27T14:47:21;95698.91;;;12.85;87.41
57442;BME280;43284;47.042;15.498;2022-09-27T14:49:51;95699.41;;;12.79;86.93
57442;BME280;43284;47.042;15.498;2022-09-27T14:52:24;95701.56;;;12.74;86.19
57442;BME280;43284;47.042;15.498;2022-09-27T14:55:16;95705.97;;;12.73;86.83
57442;BME280;43284;47.042;15.498;2022-09-27T14:57:51;95714.78;;;12.72;89.29
57442;BME280;43284;47.042;15.498;2022-09-27T15:00:25;95723.88;;;12.68;89.84
57442;BME280;43284;47.042;15.498;2022-09-27T15:02:55;95727.69;;;12.64;90.78
57442;BME280;43284;47.042;15.498;2022-09-27T15:05:29;95731.25;;;12.63;91.73
57442;BME280;43284;47.042;15.498;2022-09-27T15:08:00;95733.16;;;12.61;92.18
57442;BME280;43284;47.042;15.498;2022-09-27T15:10:32;95729.59;;;12.62;92.04
57442;BME280;43284;47.042;15.498;2022-09-27T15:13:02;95735.94;;;12.60;92.59
57442;BME280;43284;47.042;15.498;2022-09-27T15:15:35;95741.28;;;12.58;92.46
57442;BME280;43284;47.042;15.498;2022-09-27T15:20:56;95738.66;;;12.58;92.77
57442;BME280;43284;47.042;15.498;2022-09-27T15:23:36;95747.72;;;12.54;92.97